createdAt,value
2017-10-03T00:00:55.890Z,0.00
2017-10-03T00:01:55.924Z,0.00
2017-10-03T00:02:55.965Z,0.00
2017-10-03T00:03:56.006Z,0.00
2017-10-03T00:05:17.058Z,0.00
2017-10-03T00:05:56.078Z,0.00
2017-10-03T00:06:56.115Z,0.00
2017-10-03T00:07:56.149Z,0.00
2017-10-03T00:08:56.187Z,0.00
2017-10-03T00:09:56.234Z,0.00
2017-10-03T00:11:17.290Z,0.00
2017-10-03T00:11:56.310Z,0.00
2017-10-03T00:12:56.336Z,0.00
2017-10-03T00:13:56.375Z,0.00
2017-10-03T00:14:56.417Z,0.00
2017-10-03T00:15:56.453Z,0.00
2017-10-03T00:17:17.508Z,0.00
2017-10-03T00:17:56.529Z,0.00
2017-10-03T00:18:56.566Z,0.00
2017-10-03T00:19:56.605Z,0.00
2017-10-03T00:20:56.647Z,0.00
2017-10-03T00:21:56.691Z,0.00
2017-10-03T00:23:17.735Z,0.00
2017-10-03T00:23:56.757Z,0.00
2017-10-03T00:24:56.789Z,0.00
2017-10-03T00:25:56.830Z,0.00
2017-10-03T00:26:56.874Z,0.00
2017-10-03T00:27:56.902Z,0.00
2017-10-03T00:29:17.970Z,0.00
2017-10-03T00:29:56.983Z,0.00
2017-10-03T00:30:57.013Z,0.00
2017-10-03T00:31:57.056Z,0.00
2017-10-03T00:32:57.095Z,0.00
2017-10-03T00:33:57.134Z,0.00
2017-10-03T00:35:18.190Z,0.00
2017-10-03T00:35:57.207Z,0.00
2017-10-03T00:36:57.242Z,0.00
2017-10-03T00:37:57.286Z,0.00
2017-10-03T00:38:57.327Z,0.00
2017-10-03T00:39:57.360Z,0.00
2017-10-03T00:41:18.418Z,0.00
2017-10-03T00:41:57.430Z,0.00
2017-10-03T00:42:57.469Z,0.00
2017-10-03T00:43:57.507Z,0.00
2017-10-03T00:44:57.540Z,0.00
2017-10-03T00:45:57.583Z,0.00
2017-10-03T00:47:18.637Z,0.00
2017-10-03T00:47:57.660Z,0.00
2017-10-03T00:48:57.695Z,0.00
2017-10-03T00:49:57.738Z,0.00
2017-10-03T00:50:57.768Z,0.00
2017-10-03T00:51:57.814Z,0.00
2017-10-03T00:53:18.867Z,0.00
2017-10-03T00:53:57.883Z,0.00
2017-10-03T00:54:57.923Z,0.00
2017-10-03T00:55:57.957Z,0.00
2017-10-03T00:56:57.996Z,0.00
2017-10-03T00:57:58.030Z,0.00
2017-10-03T00:59:19.090Z,0.00
2017-10-03T00:59:58.110Z,0.00
2017-10-03T01:00:58.143Z,0.00
2017-10-03T01:01:58.179Z,0.00
2017-10-03T01:02:58.218Z,0.00
2017-10-03T01:03:58.265Z,0.00
2017-10-03T01:05:19.312Z,0.00
2017-10-03T01:05:58.337Z,0.00
2017-10-03T01:06:58.375Z,0.00
2017-10-03T01:07:58.403Z,0.00
2017-10-03T01:08:58.441Z,0.00
2017-10-03T01:09:58.481Z,0.00
2017-10-03T01:11:19.543Z,0.00
2017-10-03T01:11:58.558Z,0.00
2017-10-03T01:12:58.592Z,0.00
2017-10-03T01:13:58.666Z,0.00
2017-10-03T01:14:58.668Z,0.00
2017-10-03T01:15:58.711Z,0.00
2017-10-03T01:17:19.761Z,0.00
2017-10-03T01:17:58.779Z,0.00
2017-10-03T01:18:58.818Z,0.00
2017-10-03T01:19:58.857Z,0.00
2017-10-03T01:20:58.901Z,0.00
2017-10-03T01:21:58.929Z,0.00
2017-10-03T01:23:19.992Z,0.00
2017-10-03T01:23:59.013Z,0.00
2017-10-03T01:24:59.040Z,0.00
2017-10-03T01:25:59.077Z,0.00
2017-10-03T01:26:59.113Z,0.00
2017-10-03T01:27:59.152Z,0.00
2017-10-03T01:29:20.214Z,0.00
2017-10-03T01:29:59.229Z,0.00
2017-10-03T01:30:59.262Z,0.00
2017-10-03T01:31:59.307Z,0.00
2017-10-03T01:32:59.340Z,0.00
2017-10-03T01:33:59.377Z,0.00
2017-10-03T01:35:20.434Z,0.00
2017-10-03T01:35:59.449Z,0.00
2017-10-03T01:36:59.485Z,0.00
2017-10-03T01:37:59.529Z,0.00
2017-10-03T01:38:59.563Z,0.00
2017-10-03T01:39:59.602Z,0.00
2017-10-03T01:41:20.656Z,0.00
2017-10-03T01:41:59.667Z,0.00
2017-10-03T01:42:59.709Z,0.00
2017-10-03T01:43:59.742Z,0.00
2017-10-03T01:44:59.785Z,0.00
2017-10-03T01:45:59.821Z,0.00
2017-10-03T01:47:20.876Z,0.00
2017-10-03T01:47:59.891Z,0.00
2017-10-03T01:48:59.927Z,0.00
2017-10-03T01:49:59.972Z,0.00
2017-10-03T01:51:00.003Z,0.00
2017-10-03T01:52:00.039Z,0.00
2017-10-03T01:53:21.097Z,0.00
2017-10-03T01:54:00.111Z,0.00
2017-10-03T01:55:00.147Z,0.00
2017-10-03T01:56:00.187Z,0.00
2017-10-03T01:57:00.223Z,0.00
2017-10-03T01:58:00.263Z,0.00
2017-10-03T01:59:21.321Z,0.00
2017-10-03T02:00:00.328Z,0.00
2017-10-03T02:01:00.365Z,0.00
2017-10-03T02:02:00.410Z,0.00
2017-10-03T02:03:00.442Z,0.00
2017-10-03T02:04:00.477Z,0.00
2017-10-03T02:05:21.535Z,0.00
2017-10-03T02:06:00.548Z,0.00
2017-10-03T02:07:00.590Z,0.00
2017-10-03T02:08:00.620Z,0.00
2017-10-03T02:09:00.659Z,0.00
2017-10-03T02:10:00.695Z,0.00
2017-10-03T02:11:21.748Z,0.00
2017-10-03T02:12:00.765Z,0.00
2017-10-03T02:13:00.802Z,0.00
2017-10-03T02:14:00.850Z,0.00
2017-10-03T02:15:00.879Z,0.00
2017-10-03T02:16:00.911Z,0.00
2017-10-03T02:17:21.972Z,0.00
2017-10-03T02:18:00.984Z,0.00
2017-10-03T02:19:01.020Z,0.00
2017-10-03T02:20:01.061Z,0.00
2017-10-03T02:21:01.099Z,0.00
2017-10-03T02:22:01.176Z,0.00
2017-10-03T02:23:22.192Z,0.00
2017-10-03T02:24:01.201Z,0.00
2017-10-03T02:25:01.241Z,0.00
2017-10-03T02:26:01.272Z,0.00
2017-10-03T02:27:01.312Z,0.00
2017-10-03T02:28:01.347Z,0.00
2017-10-03T02:29:22.408Z,0.00
2017-10-03T02:30:01.422Z,0.00
2017-10-03T02:31:01.461Z,0.00
2017-10-03T02:32:01.491Z,0.00
2017-10-03T02:33:01.526Z,0.00
2017-10-03T02:34:01.568Z,0.00
2017-10-03T02:35:22.623Z,0.00
2017-10-03T02:36:01.642Z,0.00
2017-10-03T02:37:01.674Z,0.00
2017-10-03T02:38:01.746Z,0.00
2017-10-03T02:39:01.755Z,0.00
2017-10-03T02:40:01.787Z,0.00
2017-10-03T02:41:22.843Z,0.00
2017-10-03T02:42:01.857Z,0.00
2017-10-03T02:43:01.896Z,0.00
2017-10-03T02:44:01.935Z,0.00
2017-10-03T02:45:01.973Z,0.00
2017-10-03T02:46:02.006Z,0.00
2017-10-03T02:47:23.059Z,0.00
2017-10-03T02:48:02.074Z,0.00
2017-10-03T02:49:02.113Z,0.00
2017-10-03T02:50:02.146Z,0.00
2017-10-03T02:51:02.182Z,0.00
2017-10-03T02:52:02.222Z,0.00
2017-10-03T02:53:23.279Z,0.00
2017-10-03T02:54:02.306Z,0.00
2017-10-03T02:55:02.334Z,0.00
2017-10-03T02:56:02.368Z,0.00
2017-10-03T02:57:02.399Z,0.00
2017-10-03T02:58:02.446Z,0.00
2017-10-03T02:59:23.505Z,0.00
2017-10-03T03:00:02.511Z,0.00
2017-10-03T03:01:02.551Z,0.00
2017-10-03T03:02:02.593Z,0.00
2017-10-03T03:03:02.624Z,0.00
2017-10-03T03:04:02.659Z,0.00
2017-10-03T03:05:23.715Z,0.00
2017-10-03T03:06:02.730Z,0.00
2017-10-03T03:07:02.767Z,0.00
2017-10-03T03:08:02.804Z,0.00
2017-10-03T03:09:02.841Z,0.00
2017-10-03T03:10:02.878Z,0.00
2017-10-03T03:11:23.937Z,0.00
2017-10-03T03:12:02.947Z,0.00
2017-10-03T03:13:02.986Z,0.00
2017-10-03T03:14:03.026Z,0.00
2017-10-03T03:15:03.058Z,0.00
2017-10-03T03:16:03.099Z,0.00
2017-10-03T03:17:24.151Z,0.00
2017-10-03T03:18:03.181Z,0.00
2017-10-03T03:19:03.218Z,0.00
2017-10-03T03:20:03.243Z,0.00
2017-10-03T03:21:03.277Z,0.00
2017-10-03T03:22:03.312Z,0.00
2017-10-03T03:23:24.372Z,0.00
2017-10-03T03:24:03.387Z,0.00
2017-10-03T03:25:03.418Z,0.00
2017-10-03T03:26:03.463Z,0.00
2017-10-03T03:27:03.490Z,0.00
2017-10-03T03:28:03.531Z,0.00
2017-10-03T03:29:24.589Z,0.00
2017-10-03T03:30:03.607Z,0.00
2017-10-03T03:31:03.641Z,0.00
2017-10-03T03:32:03.677Z,0.00
2017-10-03T03:33:03.713Z,0.00
2017-10-03T03:34:03.758Z,0.00
2017-10-03T03:35:24.806Z,0.00
2017-10-03T03:36:03.823Z,0.00
2017-10-03T03:37:03.855Z,0.00
2017-10-03T03:38:03.897Z,0.00
2017-10-03T03:39:03.931Z,0.00
2017-10-03T03:40:03.963Z,0.00
2017-10-03T03:41:25.023Z,0.00
2017-10-03T03:42:04.038Z,0.00
2017-10-03T03:43:04.081Z,0.00
2017-10-03T03:44:04.110Z,0.00
2017-10-03T03:45:04.150Z,0.00
2017-10-03T03:46:04.183Z,0.00
2017-10-03T03:47:25.240Z,0.00
2017-10-03T03:48:04.261Z,0.00
2017-10-03T03:49:04.290Z,0.00
2017-10-03T03:50:04.325Z,0.00
2017-10-03T03:51:04.363Z,0.00
2017-10-03T03:52:04.407Z,0.00
2017-10-03T03:53:25.459Z,0.00
2017-10-03T03:54:04.476Z,0.00
2017-10-03T03:55:04.512Z,0.00
2017-10-03T03:56:04.548Z,0.00
2017-10-03T03:57:04.584Z,0.00
2017-10-03T03:58:04.619Z,0.00
2017-10-03T03:59:25.678Z,0.00
2017-10-03T04:00:04.693Z,0.00
2017-10-03T04:01:04.730Z,0.00
2017-10-03T04:02:04.772Z,0.00
2017-10-03T04:03:04.804Z,0.00
2017-10-03T04:04:04.837Z,0.00
2017-10-03T04:05:25.899Z,0.00
2017-10-03T04:06:04.907Z,0.00
2017-10-03T04:07:04.949Z,0.00
2017-10-03T04:08:04.985Z,0.00
2017-10-03T04:09:05.014Z,0.00
2017-10-03T04:10:05.053Z,0.00
2017-10-03T04:11:26.114Z,0.00
2017-10-03T04:12:05.127Z,0.00
2017-10-03T04:13:05.163Z,0.00
2017-10-03T04:14:05.198Z,0.00
2017-10-03T04:15:05.241Z,0.00
2017-10-03T04:16:05.269Z,0.00
2017-10-03T04:17:26.346Z,0.00
2017-10-03T04:18:05.353Z,0.00
2017-10-03T04:19:05.387Z,0.00
2017-10-03T04:20:05.415Z,0.00
2017-10-03T04:21:05.457Z,0.00
2017-10-03T04:22:05.487Z,0.00
2017-10-03T04:23:26.557Z,0.00
2017-10-03T04:24:05.558Z,0.00
2017-10-03T04:25:05.599Z,0.00
2017-10-03T04:26:05.635Z,0.00
2017-10-03T04:27:05.667Z,0.00
2017-10-03T04:28:05.707Z,0.00
2017-10-03T04:29:26.763Z,0.00
2017-10-03T04:30:05.778Z,0.00
2017-10-03T04:31:05.816Z,0.00
2017-10-03T04:32:05.852Z,0.00
2017-10-03T04:33:05.881Z,0.00
2017-10-03T04:34:05.926Z,0.00
2017-10-03T04:35:26.980Z,0.00
2017-10-03T04:36:06.005Z,0.00
2017-10-03T04:37:06.027Z,0.00
2017-10-03T04:38:06.065Z,0.00
2017-10-03T04:39:06.104Z,0.00
2017-10-03T04:40:06.151Z,0.00
2017-10-03T04:41:27.195Z,0.00
2017-10-03T04:42:06.212Z,0.00
2017-10-03T04:43:06.247Z,0.00
2017-10-03T04:44:06.280Z,0.00
2017-10-03T04:45:06.318Z,0.00
2017-10-03T04:46:06.351Z,0.00
2017-10-03T04:47:27.415Z,0.00
2017-10-03T04:48:06.423Z,0.00
2017-10-03T04:49:06.461Z,0.00
2017-10-03T04:50:06.499Z,0.00
2017-10-03T04:51:06.534Z,0.00
2017-10-03T04:52:06.569Z,0.00
2017-10-03T04:53:27.630Z,0.00
2017-10-03T04:54:06.713Z,0.00
2017-10-03T04:55:06.682Z,0.00
2017-10-03T04:56:06.721Z,4.00
2017-10-03T04:57:06.754Z,4.00
2017-10-03T04:58:06.786Z,0.00
2017-10-03T04:59:27.846Z,4.00
2017-10-03T05:00:06.863Z,8.00
2017-10-03T05:01:06.898Z,4.00
2017-10-03T05:02:06.932Z,8.00
2017-10-03T05:03:06.965Z,8.00
2017-10-03T05:04:07.006Z,8.00
2017-10-03T05:05:28.065Z,8.00
2017-10-03T05:06:07.074Z,8.00
2017-10-03T05:07:07.115Z,8.00
2017-10-03T05:08:07.159Z,16.00
2017-10-03T05:09:07.182Z,16.00
2017-10-03T05:10:07.217Z,16.00
2017-10-03T05:11:28.277Z,16.00
2017-10-03T05:12:07.287Z,20.00
2017-10-03T05:13:07.336Z,20.00
2017-10-03T05:14:07.365Z,20.00
2017-10-03T05:15:07.401Z,24.00
2017-10-03T05:16:07.459Z,24.00
2017-10-03T05:17:28.511Z,28.00
2017-10-03T05:18:07.503Z,28.00
2017-10-03T05:19:07.537Z,28.00
2017-10-03T05:20:07.573Z,32.00
2017-10-03T05:21:07.612Z,36.00
2017-10-03T05:22:07.651Z,36.00
2017-10-03T05:23:28.704Z,40.00
2017-10-03T05:24:07.716Z,36.00
2017-10-03T05:25:07.753Z,36.00
2017-10-03T05:26:07.790Z,40.00
2017-10-03T05:27:07.827Z,40.00
2017-10-03T05:28:07.868Z,44.00
2017-10-03T05:29:28.914Z,48.00
2017-10-03T05:30:07.940Z,56.00
2017-10-03T05:31:07.969Z,64.00
2017-10-03T05:32:08.006Z,84.00
2017-10-03T05:33:08.039Z,92.00
2017-10-03T05:34:08.082Z,96.00
2017-10-03T05:35:29.131Z,104.00
2017-10-03T05:36:08.152Z,100.00
2017-10-03T05:37:08.189Z,116.00
2017-10-03T05:38:08.218Z,132.00
2017-10-03T05:39:08.252Z,120.00
2017-10-03T05:40:08.296Z,120.00
2017-10-03T05:41:29.352Z,132.00
2017-10-03T05:42:08.371Z,152.00
2017-10-03T05:43:08.399Z,156.00
2017-10-03T05:44:08.435Z,148.00
2017-10-03T05:45:08.479Z,140.00
2017-10-03T05:46:08.502Z,132.00
2017-10-03T05:47:29.568Z,124.00
2017-10-03T05:48:08.577Z,144.00
2017-10-03T05:49:08.615Z,208.00
2017-10-03T05:50:08.654Z,288.00
2017-10-03T05:51:08.688Z,360.00
2017-10-03T05:52:08.721Z,368.00
2017-10-03T05:53:29.776Z,360.00
2017-10-03T05:54:08.796Z,352.00
2017-10-03T05:55:08.835Z,336.00
2017-10-03T05:56:08.869Z,308.00
2017-10-03T05:57:08.906Z,284.00
2017-10-03T05:58:08.945Z,256.00
2017-10-03T05:59:29.996Z,240.00
2017-10-03T06:00:09.013Z,244.00
2017-10-03T06:01:09.044Z,272.00
2017-10-03T06:02:09.095Z,280.00
2017-10-03T06:03:09.119Z,268.00
2017-10-03T06:04:09.156Z,240.00
2017-10-03T06:05:30.211Z,224.00
2017-10-03T06:06:09.237Z,224.00
2017-10-03T06:07:09.261Z,232.00
2017-10-03T06:08:09.294Z,244.00
2017-10-03T06:09:09.329Z,260.00
2017-10-03T06:10:09.369Z,276.00
2017-10-03T06:11:30.427Z,280.00
2017-10-03T06:12:09.443Z,272.00
2017-10-03T06:13:09.485Z,280.00
2017-10-03T06:14:09.515Z,280.00
2017-10-03T06:15:09.553Z,276.00
2017-10-03T06:16:09.587Z,280.00
2017-10-03T06:17:30.642Z,296.00
2017-10-03T06:18:09.653Z,312.00
2017-10-03T06:19:09.697Z,324.00
2017-10-03T06:20:09.726Z,340.00
2017-10-03T06:21:09.762Z,340.00
2017-10-03T06:22:09.795Z,352.00
2017-10-03T06:23:30.851Z,376.00
2017-10-03T06:24:09.867Z,412.00
2017-10-03T06:25:09.911Z,456.00
2017-10-03T06:26:09.953Z,460.00
2017-10-03T06:27:09.976Z,424.00
2017-10-03T06:28:10.010Z,380.00
2017-10-03T06:29:31.068Z,360.00
2017-10-03T06:30:10.087Z,376.00
2017-10-03T06:31:10.124Z,404.00
2017-10-03T06:32:10.162Z,412.00
2017-10-03T06:33:10.194Z,412.00
2017-10-03T06:34:10.230Z,404.00
2017-10-03T06:35:31.282Z,388.00
2017-10-03T06:36:10.301Z,384.00
2017-10-03T06:37:10.338Z,384.00
2017-10-03T06:38:10.374Z,388.00
2017-10-03T06:39:10.407Z,384.00
2017-10-03T06:40:10.443Z,388.00
2017-10-03T06:41:31.494Z,380.00
2017-10-03T06:42:10.511Z,396.00
2017-10-03T06:43:10.553Z,456.00
2017-10-03T06:44:10.586Z,512.00
2017-10-03T06:45:10.626Z,560.00
2017-10-03T06:46:10.665Z,604.00
2017-10-03T06:47:31.718Z,628.00
2017-10-03T06:48:10.734Z,628.00
2017-10-03T06:49:10.763Z,628.00
2017-10-03T06:50:10.802Z,632.00
2017-10-03T06:51:10.839Z,636.00
2017-10-03T06:52:10.872Z,640.00
2017-10-03T06:53:31.933Z,652.00
2017-10-03T06:54:10.943Z,656.00
2017-10-03T06:55:10.978Z,648.00
2017-10-03T06:56:11.010Z,644.00
2017-10-03T06:57:11.053Z,672.00
2017-10-03T06:58:11.086Z,732.00
2017-10-03T06:59:32.146Z,804.00
2017-10-03T07:00:11.161Z,864.00
2017-10-03T07:01:11.193Z,912.00
2017-10-03T07:02:11.227Z,936.00
2017-10-03T07:03:11.267Z,932.00
2017-10-03T07:04:11.301Z,928.00
2017-10-03T07:05:32.362Z,904.00
2017-10-03T07:06:11.381Z,864.00
2017-10-03T07:07:11.412Z,820.00
2017-10-03T07:08:11.444Z,800.00
2017-10-03T07:09:11.483Z,888.00
2017-10-03T07:10:11.521Z,1024.00
2017-10-03T07:11:32.577Z,1136.00
2017-10-03T07:12:11.592Z,1256.00
2017-10-03T07:13:11.627Z,1416.00
2017-10-03T07:14:11.667Z,1476.00
2017-10-03T07:15:11.697Z,1320.00
2017-10-03T07:16:11.732Z,1216.00
2017-10-03T07:17:32.798Z,1124.00
2017-10-03T07:18:11.810Z,1004.00
2017-10-03T07:19:11.841Z,1100.00
2017-10-03T07:20:11.874Z,1456.00
2017-10-03T07:21:11.919Z,1748.00
2017-10-03T07:22:11.945Z,1820.00
2017-10-03T07:23:33.004Z,1744.00
2017-10-03T07:24:12.020Z,1636.00
2017-10-03T07:25:12.055Z,1616.00
2017-10-03T07:26:12.091Z,1696.00
2017-10-03T07:27:12.132Z,1840.00
2017-10-03T07:28:12.163Z,1948.00
2017-10-03T07:29:33.226Z,2028.00
2017-10-03T07:30:12.241Z,2096.00
2017-10-03T07:31:12.271Z,2052.00
2017-10-03T07:32:12.310Z,2012.00
2017-10-03T07:33:12.348Z,2092.00
2017-10-03T07:34:12.384Z,2188.00
2017-10-03T07:35:33.437Z,2032.00
2017-10-03T07:36:12.459Z,1932.00
2017-10-03T07:37:12.489Z,1972.00
2017-10-03T07:38:12.524Z,2080.00
2017-10-03T07:39:12.557Z,2332.00
2017-10-03T07:40:12.594Z,2584.00
2017-10-03T07:41:33.652Z,2768.00
2017-10-03T07:42:12.667Z,2820.00
2017-10-03T07:43:12.706Z,2880.00
2017-10-03T07:44:12.751Z,2616.00
2017-10-03T07:45:12.780Z,2376.00
2017-10-03T07:46:12.815Z,2416.00
2017-10-03T07:47:33.872Z,2328.00
2017-10-03T07:48:12.885Z,1980.00
2017-10-03T07:49:12.925Z,1632.00
2017-10-03T07:50:12.964Z,1588.00
2017-10-03T07:51:12.999Z,1736.00
2017-10-03T07:52:13.034Z,1884.00
2017-10-03T07:53:34.087Z,1912.00
2017-10-03T07:54:13.103Z,1892.00
2017-10-03T07:55:13.144Z,1928.00
2017-10-03T07:56:13.180Z,1868.00
2017-10-03T07:57:13.221Z,1844.00
2017-10-03T07:58:13.251Z,1936.00
2017-10-03T07:59:34.307Z,1920.00
2017-10-03T08:00:13.321Z,1956.00
2017-10-03T08:01:13.361Z,2008.00
2017-10-03T08:02:13.400Z,1696.00
2017-10-03T08:03:13.432Z,1660.00
2017-10-03T08:04:13.468Z,1640.00
2017-10-03T08:05:34.526Z,1612.00
2017-10-03T08:06:13.542Z,1632.00
2017-10-03T08:07:13.585Z,1724.00
2017-10-03T08:08:13.616Z,1812.00
2017-10-03T08:09:13.651Z,1840.00
2017-10-03T08:10:13.686Z,1884.00
2017-10-03T08:11:34.740Z,2056.00
2017-10-03T08:12:13.762Z,2276.00
2017-10-03T08:13:13.815Z,2480.00
2017-10-03T08:14:13.839Z,2520.00
2017-10-03T08:15:13.877Z,2436.00
2017-10-03T08:16:13.901Z,2312.00
2017-10-03T08:17:34.968Z,2196.00
2017-10-03T08:18:13.973Z,2104.00
2017-10-03T08:19:14.019Z,2028.00
2017-10-03T08:20:14.049Z,2088.00
2017-10-03T08:21:14.084Z,2152.00
2017-10-03T08:22:14.122Z,2200.00
2017-10-03T08:23:35.180Z,2340.00
2017-10-03T08:24:14.193Z,2276.00
2017-10-03T08:25:14.236Z,2128.00
2017-10-03T08:26:14.271Z,1924.00
2017-10-03T08:27:14.301Z,1852.00
2017-10-03T08:28:14.335Z,1808.00
2017-10-03T08:29:35.395Z,1580.00
2017-10-03T08:30:14.415Z,1288.00
2017-10-03T08:31:14.452Z,1172.00
2017-10-03T08:32:14.488Z,1192.00
2017-10-03T08:33:14.530Z,1216.00
2017-10-03T08:34:14.562Z,1396.00
2017-10-03T08:35:35.612Z,1512.00
2017-10-03T08:36:14.631Z,1468.00
2017-10-03T08:37:14.664Z,1208.00
2017-10-03T08:38:14.706Z,836.00
2017-10-03T08:39:14.747Z,604.00
2017-10-03T08:40:14.779Z,560.00
2017-10-03T08:41:35.832Z,832.00
2017-10-03T08:42:14.847Z,1160.00
2017-10-03T08:43:14.887Z,884.00
2017-10-03T08:44:14.927Z,736.00
2017-10-03T08:45:14.962Z,640.00
2017-10-03T08:46:14.989Z,544.00
2017-10-03T08:47:36.057Z,532.00
2017-10-03T08:48:15.089Z,440.00
2017-10-03T08:49:15.108Z,504.00
2017-10-03T08:50:15.142Z,632.00
2017-10-03T08:51:15.178Z,480.00
2017-10-03T08:52:15.210Z,548.00
2017-10-03T08:53:36.266Z,528.00
2017-10-03T08:54:15.296Z,792.00
2017-10-03T08:55:15.321Z,1140.00
2017-10-03T08:56:15.355Z,1032.00
2017-10-03T08:57:15.394Z,888.00
2017-10-03T08:58:15.431Z,1024.00
2017-10-03T08:59:36.489Z,1004.00
2017-10-03T09:00:15.502Z,1084.00
2017-10-03T09:01:15.535Z,1132.00
2017-10-03T09:02:15.576Z,1116.00
2017-10-03T09:03:15.610Z,1072.00
2017-10-03T09:04:15.645Z,1248.00
2017-10-03T09:05:36.704Z,1236.00
2017-10-03T09:06:15.716Z,1216.00
2017-10-03T09:07:15.754Z,1272.00
2017-10-03T09:08:15.839Z,1420.00
2017-10-03T09:09:15.827Z,1392.00
2017-10-03T09:10:15.864Z,1212.00
2017-10-03T09:11:36.927Z,1100.00
2017-10-03T09:12:15.933Z,1024.00
2017-10-03T09:13:15.971Z,948.00
2017-10-03T09:14:16.015Z,848.00
2017-10-03T09:15:16.052Z,836.00
2017-10-03T09:16:16.078Z,1296.00
2017-10-03T09:17:37.134Z,1396.00
2017-10-03T09:18:16.170Z,1256.00
2017-10-03T09:19:16.186Z,1808.00
2017-10-03T09:20:16.220Z,1972.00
2017-10-03T09:21:16.258Z,1900.00
2017-10-03T09:22:16.299Z,1984.00
2017-10-03T09:23:37.350Z,2060.00
2017-10-03T09:24:16.371Z,1776.00
2017-10-03T09:25:16.399Z,1844.00
2017-10-03T09:26:16.441Z,1672.00
2017-10-03T09:27:16.474Z,1492.00
2017-10-03T09:28:16.518Z,1712.00
2017-10-03T09:29:37.567Z,1992.00
2017-10-03T09:30:16.582Z,1788.00
2017-10-03T09:31:16.623Z,1784.00
2017-10-03T09:32:16.654Z,1728.00
2017-10-03T09:33:16.691Z,1776.00
2017-10-03T09:34:16.728Z,1924.00
2017-10-03T09:35:37.779Z,1816.00
2017-10-03T09:36:16.797Z,2004.00
2017-10-03T09:37:16.831Z,1960.00
2017-10-03T09:38:16.868Z,1836.00
2017-10-03T09:39:16.911Z,1840.00
2017-10-03T09:40:16.940Z,1696.00
2017-10-03T09:41:38.001Z,1484.00
2017-10-03T09:42:17.016Z,1508.00
2017-10-03T09:43:17.047Z,1688.00
2017-10-03T09:44:17.089Z,2164.00
2017-10-03T09:45:17.138Z,2324.00
2017-10-03T09:46:17.164Z,2208.00
2017-10-03T09:47:38.223Z,1828.00
2017-10-03T09:48:17.236Z,1648.00
2017-10-03T09:49:17.264Z,1404.00
2017-10-03T09:50:17.302Z,1392.00
2017-10-03T09:51:17.335Z,1820.00
2017-10-03T09:52:17.373Z,2132.00
2017-10-03T09:53:38.434Z,2304.00
2017-10-03T09:54:17.446Z,2516.00
2017-10-03T09:55:17.481Z,2648.00
2017-10-03T09:56:17.515Z,2596.00
2017-10-03T09:57:17.551Z,2700.00
2017-10-03T09:58:17.594Z,2664.00
2017-10-03T09:59:38.652Z,2588.00
2017-10-03T10:00:17.669Z,2640.00
2017-10-03T10:01:17.701Z,3048.00
2017-10-03T10:02:17.733Z,3228.00
2017-10-03T10:03:17.769Z,3544.00
2017-10-03T10:04:17.810Z,4136.00
2017-10-03T10:05:38.863Z,4404.00
2017-10-03T10:06:17.877Z,4940.00
2017-10-03T10:07:17.910Z,5052.00
2017-10-03T10:08:17.950Z,5128.00
2017-10-03T10:09:17.983Z,5100.00
2017-10-03T10:10:18.023Z,4420.00
2017-10-03T10:11:39.077Z,4476.00
2017-10-03T10:12:18.099Z,4440.00
2017-10-03T10:13:18.135Z,3808.00
2017-10-03T10:14:18.168Z,3240.00
2017-10-03T10:15:18.199Z,3088.00
2017-10-03T10:16:18.237Z,3116.00
2017-10-03T10:17:39.294Z,3032.00
2017-10-03T10:18:18.318Z,3408.00
2017-10-03T10:19:18.354Z,3660.00
2017-10-03T10:20:18.388Z,3476.00
2017-10-03T10:21:18.417Z,3028.00
2017-10-03T10:22:18.456Z,2696.00
2017-10-03T10:23:39.512Z,2332.00
2017-10-03T10:24:18.532Z,2528.00
2017-10-03T10:25:18.561Z,2076.00
2017-10-03T10:26:18.606Z,2796.00
2017-10-03T10:27:18.645Z,2220.00
2017-10-03T10:28:18.673Z,2688.00
2017-10-03T10:29:39.735Z,2660.00
2017-10-03T10:30:18.747Z,2968.00
2017-10-03T10:31:18.788Z,3776.00
2017-10-03T10:32:18.822Z,4720.00
2017-10-03T10:33:18.856Z,5136.00
2017-10-03T10:34:18.900Z,5188.00
2017-10-03T10:35:39.949Z,6116.00
2017-10-03T10:36:18.966Z,5472.00
2017-10-03T10:37:18.999Z,4132.00
2017-10-03T10:38:19.040Z,3120.00
2017-10-03T10:39:19.072Z,3772.00
2017-10-03T10:40:19.114Z,4088.00
2017-10-03T10:41:40.168Z,3028.00
2017-10-03T10:42:19.183Z,4276.00
2017-10-03T10:43:19.255Z,5984.00
2017-10-03T10:44:19.262Z,4568.00
2017-10-03T10:45:19.299Z,4184.00
2017-10-03T10:46:19.335Z,4860.00
2017-10-03T10:47:40.390Z,6120.00
2017-10-03T10:48:19.411Z,4444.00
2017-10-03T10:49:19.444Z,3244.00
2017-10-03T10:50:19.480Z,3440.00
2017-10-03T10:51:19.524Z,3460.00
2017-10-03T10:52:19.552Z,3468.00
2017-10-03T10:53:40.619Z,2628.00
2017-10-03T10:54:19.635Z,2592.00
2017-10-03T10:55:19.667Z,2592.00
2017-10-03T10:56:19.708Z,2504.00
2017-10-03T10:57:19.738Z,2588.00
2017-10-03T10:58:19.780Z,2172.00
2017-10-03T10:59:40.838Z,2428.00
2017-10-03T11:00:19.850Z,3196.00
2017-10-03T11:01:19.889Z,2292.00
2017-10-03T11:02:19.925Z,2616.00
2017-10-03T11:03:19.959Z,3932.00
2017-10-03T11:04:20.006Z,2432.00
2017-10-03T11:05:41.063Z,2692.00
2017-10-03T11:06:20.075Z,3644.00
2017-10-03T11:07:20.109Z,3896.00
2017-10-03T11:08:20.148Z,3572.00
2017-10-03T11:09:20.191Z,3928.00
2017-10-03T11:10:20.223Z,4980.00
2017-10-03T11:11:41.305Z,4376.00
2017-10-03T11:12:20.297Z,3928.00
2017-10-03T11:13:20.333Z,7092.00
2017-10-03T11:14:20.376Z,6036.00
2017-10-03T11:15:20.412Z,4776.00
2017-10-03T11:16:20.444Z,3060.00
2017-10-03T11:17:41.523Z,2284.00
2017-10-03T11:18:20.518Z,2080.00
2017-10-03T11:19:20.565Z,2296.00
2017-10-03T11:20:20.596Z,3560.00
2017-10-03T11:21:20.645Z,2992.00
2017-10-03T11:22:20.676Z,2252.00
2017-10-03T11:23:41.729Z,2788.00
2017-10-03T11:24:20.745Z,2588.00
2017-10-03T11:25:20.781Z,3284.00
2017-10-03T11:26:20.823Z,4128.00
2017-10-03T11:27:20.856Z,3736.00
2017-10-03T11:28:20.893Z,3352.00
2017-10-03T11:29:41.957Z,3140.00
2017-10-03T11:30:20.971Z,3168.00
2017-10-03T11:31:21.006Z,3248.00
2017-10-03T11:32:21.044Z,3280.00
2017-10-03T11:33:21.080Z,3380.00
2017-10-03T11:34:21.122Z,3816.00
2017-10-03T11:35:42.182Z,3896.00
2017-10-03T11:36:21.203Z,3580.00
2017-10-03T11:37:21.232Z,3956.00
2017-10-03T11:38:21.272Z,3848.00
2017-10-03T11:39:21.309Z,3184.00
2017-10-03T11:40:21.346Z,3172.00
2017-10-03T11:41:42.401Z,4004.00
2017-10-03T11:42:21.416Z,4524.00
2017-10-03T11:43:21.458Z,4556.00
2017-10-03T11:44:21.498Z,5160.00
2017-10-03T11:45:21.532Z,5612.00
2017-10-03T11:46:21.570Z,4024.00
2017-10-03T11:47:42.625Z,4252.00
2017-10-03T11:48:21.647Z,4068.00
2017-10-03T11:49:21.690Z,4208.00
2017-10-03T11:50:21.719Z,3700.00
2017-10-03T11:51:21.755Z,3288.00
2017-10-03T11:52:21.795Z,3076.00
2017-10-03T11:53:42.862Z,3160.00
2017-10-03T11:54:21.870Z,2936.00
2017-10-03T11:55:21.924Z,2852.00
2017-10-03T11:56:21.948Z,2696.00
2017-10-03T11:57:21.985Z,2796.00
2017-10-03T11:58:22.017Z,2828.00
2017-10-03T11:59:43.078Z,3236.00
2017-10-03T12:00:22.108Z,2596.00
2017-10-03T12:01:22.138Z,2188.00
2017-10-03T12:02:22.176Z,2608.00
2017-10-03T12:03:22.211Z,3492.00
2017-10-03T12:04:22.250Z,4520.00
2017-10-03T12:05:43.305Z,4428.00
2017-10-03T12:06:22.331Z,4176.00
2017-10-03T12:07:22.360Z,3996.00
2017-10-03T12:08:22.399Z,3256.00
2017-10-03T12:09:22.434Z,2796.00
2017-10-03T12:10:22.469Z,2768.00
2017-10-03T12:11:43.534Z,3516.00
2017-10-03T12:12:22.557Z,4080.00
2017-10-03T12:13:22.585Z,4596.00
2017-10-03T12:14:22.625Z,4160.00
2017-10-03T12:15:22.670Z,3784.00
2017-10-03T12:16:22.697Z,2960.00
2017-10-03T12:17:43.755Z,2440.00
2017-10-03T12:18:22.778Z,2428.00
2017-10-03T12:19:22.811Z,2628.00
2017-10-03T12:20:22.851Z,2844.00
2017-10-03T12:21:22.890Z,3496.00
2017-10-03T12:22:22.928Z,3916.00
2017-10-03T12:23:43.979Z,4188.00
2017-10-03T12:24:22.995Z,4184.00
2017-10-03T12:25:23.035Z,4288.00
2017-10-03T12:26:23.076Z,4328.00
2017-10-03T12:27:23.114Z,3952.00
2017-10-03T12:28:23.157Z,3984.00
2017-10-03T12:29:44.209Z,4440.00
2017-10-03T12:30:23.238Z,5632.00
2017-10-03T12:31:23.263Z,5796.00
2017-10-03T12:32:23.306Z,5912.00
2017-10-03T12:33:23.341Z,6736.00
2017-10-03T12:34:23.376Z,7272.00
2017-10-03T12:35:44.436Z,7028.00
2017-10-03T12:36:23.456Z,7220.00
2017-10-03T12:37:23.492Z,5836.00
2017-10-03T12:38:23.533Z,5580.00
2017-10-03T12:39:23.567Z,3776.00